Time;durP1;ratioP1;P1;durP2;ratioP2;P2;SDS_P1;SDS_P2;PMS_P1;PMS_P2;Temp;Humidity;BMP_temperature;BMP_pressure;BME280_temperature;BME280_humidity;BME280_pressure;Samples;Min_cycle;Max_cycle;Signal;HPM_P1;HPM_P2
2024/01/03 00:01:03;;;;;;;0.10;0.10;;;;;;;;;;5012532;28;20025;-78
2024/01/03 00:03:31;;;;;;;0.10;0.10;;;;;;;;;;5010086;28;20017;-77
2024/01/03 00:05:57;;;;;;;0.10;0.10;;;;;;;;;;5024452;28;20033;-78
2024/01/03 00:08:27;;;;;;;0.35;0.10;;;;;;;;;;5017742;28;20017;-78
2024/01/03 00:10:55;;;;;;;0.20;0.20;;;;;;;;;;5019452;28;20030;-77
2024/01/03 00:13:33;;;;;;;0.20;0.10;;;;;;;;;;5015110;28;20017;-78
2024/01/03 00:16:06;;;;;;;0.30;0.20;;;;;;;;;;5017643;28;20027;-77
2024/01/03 00:18:40;;;;;;;0.00;0.00;;;;;;;;;;5021394;28;20025;-77
2024/01/03 00:21:07;;;;;;;0.20;0.03;;;;;;;;;;5020674;28;20492;-77
2024/01/03 00:23:37;;;;;;;0.10;0.10;;;;;;;;;;5016827;28;20014;-78
2024/01/03 00:26:04;;;;;;;0.10;0.10;;;;;;;;;;5015229;28;20018;-78
2024/01/03 00:28:30;;;;;;;0.85;0.17;;;;;;;;;;5017731;28;20022;-78
2024/01/03 00:30:56;;;;;;;0.35;0.20;;;;;;;;;;5017004;28;20057;-78
2024/01/03 00:33:22;;;;;;;0.10;0.10;;;;;;;;;;5015042;28;20026;-78
2024/01/03 00:35:51;;;;;;;0.00;0.00;;;;;;;;;;5016104;28;20026;-79
2024/01/03 00:38:17;;;;;;;0.28;0.20;;;;;;;;;;5008774;28;20033;-79
2024/01/03 00:40:57;;;;;;;0.10;0.10;;;;;;;;;;5018740;28;20018;-77
2024/01/03 00:43:23;;;;;;;0.10;0.10;;;;;;;;;;5019167;28;20013;-77
2024/01/03 00:45:49;;;;;;;0.20;0.10;;;;;;;;;;5022957;28;20084;-78
2024/01/03 00:48:16;;;;;;;0.10;0.10;;;;;;;;;;5025006;28;20495;-77
2024/01/03 00:50:42;;;;;;;0.03;0.03;;;;;;;;;;5022510;28;20428;-77
2024/01/03 00:53:09;;;;;;;0.10;0.10;;;;;;;;;;5022573;28;20032;-76
2024/01/03 00:55:35;;;;;;;0.10;0.10;;;;;;;;;;5026692;28;20026;-78
2024/01/03 00:58:01;;;;;;;0.32;0.10;;;;;;;;;;5029669;28;20545;-76
2024/01/03 01:00:27;;;;;;;0.30;0.20;;;;;;;;;;5021186;28;20037;-77
2024/01/03 01:02:53;;;;;;;0.25;0.25;;;;;;;;;;5028973;28;20042;-76
2024/01/03 01:05:20;;;;;;;0.10;0.10;;;;;;;;;;5022659;28;20021;-78
2024/01/03 01:07:46;;;;;;;0.77;0.10;;;;;;;;;;5027095;28;20014;-77
2024/01/03 01:10:12;;;;;;;0.10;0.10;;;;;;;;;;5027751;28;20021;-78
2024/01/03 01:12:38;;;;;;;0.20;0.20;;;;;;;;;;5032151;28;20030;-78
2024/01/03 01:15:05;;;;;;;0.20;0.20;;;;;;;;;;5024207;28;20018;-78
2024/01/03 01:17:34;;;;;;;0.13;0.13;;;;;;;;;;5025975;28;20020;-77
2024/01/03 01:20:00;;;;;;;0.10;0.10;;;;;;;;;;5032696;28;20045;-77
2024/01/03 01:22:26;;;;;;;0.30;0.10;;;;;;;;;;5029487;28;20057;-77
2024/01/03 01:24:52;;;;;;;0.15;0.13;;;;;;;;;;5035516;28;20029;-77
2024/01/03 01:27:18;;;;;;;0.47;0.20;;;;;;;;;;5035736;28;20041;-78
2024/01/03 01:29:45;;;;;;;0.05;0.05;;;;;;;;;;5027254;28;20038;-77
2024/01/03 01:32:11;;;;;;;0.30;0.30;;;;;;;;;;5036025;28;20025;-77
2024/01/03 01:34:37;;;;;;;0.10;0.10;;;;;;;;;;5036528;28;20041;-78
2024/01/03 01:37:03;;;;;;;0.00;0.00;;;;;;;;;;5022332;28;20029;-78
2024/01/03 01:39:29;;;;;;;0.10;0.08;;;;;;;;;;5026240;28;20022;-76
2024/01/03 01:41:55;;;;;;;0.10;0.10;;;;;;;;;;5024661;28;20022;-76
2024/01/03 01:44:21;;;;;;;0.17;0.10;;;;;;;;;;5030574;28;20053;-77
2024/01/03 01:46:48;;;;;;;0.10;0.10;;;;;;;;;;5037583;28;20049;-77
2024/01/03 01:49:17;;;;;;;0.10;0.10;;;;;;;;;;5040634;28;20006;-76
2024/01/03 01:51:44;;;;;;;0.10;0.10;;;;;;;;;;5043161;28;20491;-78
2024/01/03 01:54:11;;;;;;;0.17;0.17;;;;;;;;;;5043619;28;20029;-78
2024/01/03 01:56:37;;;;;;;0.88;0.20;;;;;;;;;;5038831;28;20033;-77
2024/01/03 01:59:05;;;;;;;0.00;0.00;;;;;;;;;;5050194;28;20040;-76
2024/01/03 02:01:31;;;;;;;0.15;0.15;;;;;;;;;;5048569;28;20031;-77
2024/01/03 02:03:57;;;;;;;0.47;0.20;;;;;;;;;;5047243;28;20018;-77
2024/01/03 02:06:24;;;;;;;1.25;0.20;;;;;;;;;;5048014;28;20030;-77
2024/01/03 02:08:50;;;;;;;0.10;0.10;;;;;;;;;;5033759;28;20056;-78
2024/01/03 02:11:16;;;;;;;0.10;0.10;;;;;;;;;;5021205;28;20388;-78
2024/01/03 02:13:46;;;;;;;0.15;0.08;;;;;;;;;;5038880;28;20022;-79
2024/01/03 02:16:12;;;;;;;0.13;0.10;;;;;;;;;;5046979;28;20043;-77
2024/01/03 02:18:39;;;;;;;0.93;0.10;;;;;;;;;;5044881;28;20023;-78
2024/01/03 02:21:08;;;;;;;0.20;0.00;;;;;;;;;;5046818;28;20026;-78
2024/01/03 02:23:34;;;;;;;0.10;0.10;;;;;;;;;;5042618;28;20010;-77
2024/01/03 02:26:00;;;;;;;0.10;0.10;;;;;;;;;;5042181;28;20037;-76
2024/01/03 02:28:26;;;;;;;0.10;0.10;;;;;;;;;;5043719;28;20081;-78
2024/01/03 02:30:52;;;;;;;0.17;0.10;;;;;;;;;;5032387;28;20029;-77
2024/01/03 02:33:19;;;;;;;0.17;0.17;;;;;;;;;;5039158;28;20066;-77
2024/01/03 02:35:45;;;;;;;0.10;0.10;;;;;;;;;;5048737;28;20072;-77
2024/01/03 02:38:11;;;;;;;0.10;0.10;;;;;;;;;;5032325;28;20034;-78
2024/01/03 02:40:37;;;;;;;0.08;0.08;;;;;;;;;;5026035;28;20036;-79
2024/01/03 02:43:04;;;;;;;0.15;0.15;;;;;;;;;;5030757;28;20021;-78
2024/01/03 02:45:30;;;;;;;0.93;0.25;;;;;;;;;;5028781;28;20506;-77
2024/01/03 02:47:56;;;;;;;1.45;0.00;;;;;;;;;;5034626;28;20025;-77
2024/01/03 02:50:22;;;;;;;0.10;0.00;;;;;;;;;;5037414;28;20427;-77
2024/01/03 02:52:48;;;;;;;0.00;0.00;;;;;;;;;;5030604;28;20030;-77
2024/01/03 02:55:14;;;;;;;0.95;0.20;;;;;;;;;;5034945;28;20026;-78
2024/01/03 02:57:41;;;;;;;0.10;0.10;;;;;;;;;;5031783;28;20026;-77
2024/01/03 03:00:10;;;;;;;0.25;0.10;;;;;;;;;;5040516;28;20021;-77
2024/01/03 03:02:36;;;;;;;0.10;0.10;;;;;;;;;;5030361;28;20064;-77
2024/01/03 03:05:02;;;;;;;2.70;0.10;;;;;;;;;;5027872;28;20034;-77
2024/01/03 03:07:28;;;;;;;0.20;0.10;;;;;;;;;;5027431;28;20018;-77
2024/01/03 03:09:54;;;;;;;0.50;0.20;;;;;;;;;;5019126;28;20034;-77
2024/01/03 03:12:20;;;;;;;0.10;0.10;;;;;;;;;;5031741;28;20030;-78
2024/01/03 03:14:46;;;;;;;0.30;0.10;;;;;;;;;;5025717;28;20040;-77
2024/01/03 03:17:12;;;;;;;1.50;0.03;;;;;;;;;;5020681;28;20109;-77
2024/01/03 03:19:38;;;;;;;0.20;0.20;;;;;;;;;;5020769;28;20067;-77
2024/01/03 03:22:04;;;;;;;0.10;0.10;;;;;;;;;;5021902;28;20397;-78
2024/01/03 03:24:32;;;;;;;0.38;0.10;;;;;;;;;;5012263;28;20053;-78
2024/01/03 03:26:58;;;;;;;0.10;0.10;;;;;;;;;;5013726;28;20022;-77
2024/01/03 03:29:24;;;;;;;0.10;0.00;;;;;;;;;;5023698;28;20014;-78
2024/01/03 03:31:50;;;;;;;0.25;0.10;;;;;;;;;;5021248;28;20030;-78
2024/01/03 03:34:20;;;;;;;0.10;0.10;;;;;;;;;;5026227;28;20037;-78
2024/01/03 03:36:46;;;;;;;0.10;0.10;;;;;;;;;;5018715;28;20477;-78
2024/01/03 03:39:12;;;;;;;0.10;0.10;;;;;;;;;;5019661;28;20026;-77
2024/01/03 03:41:38;;;;;;;0.10;0.10;;;;;;;;;;5023469;28;20026;-78
2024/01/03 03:44:05;;;;;;;0.10;0.10;;;;;;;;;;5023611;28;20017;-77
2024/01/03 03:46:31;;;;;;;0.43;0.20;;;;;;;;;;5017988;28;20469;-77
2024/01/03 03:48:57;;;;;;;0.10;0.10;;;;;;;;;;5025538;28;20487;-78
2024/01/03 03:51:23;;;;;;;0.80;0.20;;;;;;;;;;5023218;28;20025;-78
2024/01/03 03:53:49;;;;;;;0.25;0.10;;;;;;;;;;5027133;28;20048;-77
2024/01/03 03:56:25;;;;;;;0.30;0.10;;;;;;;;;;5023630;28;20476;-78
2024/01/03 03:58:52;;;;;;;0.85;0.13;;;;;;;;;;5019055;28;20026;-77
2024/01/03 04:01:18;;;;;;;0.10;0.10;;;;;;;;;;5018043;28;20021;-77
2024/01/03 04:03:44;;;;;;;0.08;0.08;;;;;;;;;;5009317;28;20029;-76
2024/01/03 04:06:13;;;;;;;1.10;0.20;;;;;;;;;;5016626;28;20030;-77
2024/01/03 04:08:43;;;;;;;0.45;0.17;;;;;;;;;;5018533;28;20022;-77
2024/01/03 04:11:10;;;;;;;0.10;0.10;;;;;;;;;;5022017;28;20084;-77
2024/01/03 04:13:38;;;;;;;0.85;0.10;;;;;;;;;;5018304;28;20493;-77
2024/01/03 04:16:10;;;;;;;0.80;0.10;;;;;;;;;;5027913;28;20112;-76
2024/01/03 04:18:36;;;;;;;0.10;0.10;;;;;;;;;;5020715;28;20034;-77
2024/01/03 04:21:05;;;;;;;0.20;0.20;;;;;;;;;;5023223;28;20048;-78
2024/01/03 04:23:31;;;;;;;0.10;0.10;;;;;;;;;;5025724;28;20021;-78
2024/01/03 04:25:58;;;;;;;0.10;0.10;;;;;;;;;;5023692;28;20030;-78
2024/01/03 04:28:24;;;;;;;0.25;0.10;;;;;;;;;;5027339;28;20026;-78
2024/01/03 04:30:50;;;;;;;0.00;0.00;;;;;;;;;;5017762;28;20033;-78
2024/01/03 04:33:16;;;;;;;0.10;0.10;;;;;;;;;;5024647;28;20028;-79
2024/01/03 04:35:42;;;;;;;0.15;0.15;;;;;;;;;;5019442;28;20068;-78
2024/01/03 04:38:08;;;;;;;1.67;0.10;;;;;;;;;;5015010;28;20026;-77
2024/01/03 04:40:34;;;;;;;0.10;0.10;;;;;;;;;;5026193;28;20030;-77
2024/01/03 04:43:00;;;;;;;1.95;0.20;;;;;;;;;;5022412;28;20385;-79
2024/01/03 04:45:26;;;;;;;0.10;0.10;;;;;;;;;;5024463;28;20025;-78
2024/01/03 04:47:53;;;;;;;0.98;0.20;;;;;;;;;;5026254;28;20091;-77
2024/01/03 04:50:19;;;;;;;1.75;0.20;;;;;;;;;;5022879;28;20068;-78
2024/01/03 04:52:46;;;;;;;0.10;0.10;;;;;;;;;;5016147;28;20072;-78
2024/01/03 04:55:12;;;;;;;0.10;0.10;;;;;;;;;;5019225;28;20105;-78
2024/01/03 04:57:38;;;;;;;0.22;0.20;;;;;;;;;;5021721;28;20014;-77
2024/01/03 05:00:07;;;;;;;0.10;0.05;;;;;;;;;;5019163;28;20068;-78
2024/01/03 05:02:33;;;;;;;0.10;0.10;;;;;;;;;;5000254;28;20442;-78
2024/01/03 05:04:59;;;;;;;0.10;0.10;;;;;;;;;;5005623;28;20045;-78
2024/01/03 05:07:25;;;;;;;0.63;0.10;;;;;;;;;;5005384;28;20065;-77
2024/01/03 05:09:51;;;;;;;0.10;0.10;;;;;;;;;;4995671;28;20098;-77
2024/01/03 05:12:17;;;;;;;0.10;0.10;;;;;;;;;;4995988;28;20497;-77
2024/01/03 05:14:44;;;;;;;0.10;0.10;;;;;;;;;;5008382;28;20033;-78
2024/01/03 05:17:10;;;;;;;0.10;0.10;;;;;;;;;;5011440;28;20486;-78
2024/01/03 05:19:36;;;;;;;0.10;0.10;;;;;;;;;;5012852;28;20029;-77
2024/01/03 05:22:02;;;;;;;0.52;0.10;;;;;;;;;;5014895;28;20079;-77
2024/01/03 05:24:28;;;;;;;1.85;0.28;;;;;;;;;;4997580;28;20030;-79
2024/01/03 05:26:54;;;;;;;0.17;0.10;;;;;;;;;;5009584;28;20022;-78
2024/01/03 05:29:20;;;;;;;0.63;0.20;;;;;;;;;;5013620;28;20022;-77
2024/01/03 05:31:47;;;;;;;0.10;0.00;;;;;;;;;;5018118;28;20026;-78
2024/01/03 05:34:13;;;;;;;0.90;0.08;;;;;;;;;;5004397;28;20082;-78
2024/01/03 05:36:39;;;;;;;0.30;0.10;;;;;;;;;;5005810;28;20106;-77
2024/01/03 05:39:05;;;;;;;0.20;0.10;;;;;;;;;;5007966;28;20022;-79
2024/01/03 05:41:31;;;;;;;0.17;0.10;;;;;;;;;;5007320;28;20034;-78
2024/01/03 05:43:57;;;;;;;0.05;0.05;;;;;;;;;;5005987;28;20145;-77
2024/01/03 05:46:24;;;;;;;0.20;0.10;;;;;;;;;;5013821;28;20479;-77
2024/01/03 05:48:50;;;;;;;0.10;0.10;;;;;;;;;;5015743;28;20040;-78
2024/01/03 05:51:16;;;;;;;0.10;0.10;;;;;;;;;;5011467;28;20026;-78
2024/01/03 05:53:47;;;;;;;0.55;0.10;;;;;;;;;;5005621;28;20069;-78
2024/01/03 05:56:16;;;;;;;0.32;0.10;;;;;;;;;;5002083;28;20401;-77
2024/01/03 05:58:43;;;;;;;0.10;0.10;;;;;;;;;;5007659;28;20084;-78
2024/01/03 06:01:09;;;;;;;0.08;0.08;;;;;;;;;;5014420;28;20026;-79
2024/01/03 06:03:36;;;;;;;0.10;0.10;;;;;;;;;;5018609;28;20531;-77
2024/01/03 06:06:02;;;;;;;0.00;0.00;;;;;;;;;;4995311;28;20037;-78
2024/01/03 06:08:28;;;;;;;0.03;0.00;;;;;;;;;;5020257;28;20029;-78
2024/01/03 06:10:55;;;;;;;0.20;0.10;;;;;;;;;;5021906;28;20084;-78
2024/01/03 06:13:24;;;;;;;0.10;0.10;;;;;;;;;;5007943;28;20022;-78
2024/01/03 06:15:51;;;;;;;0.00;0.00;;;;;;;;;;5013238;28;20030;-77
2024/01/03 06:18:17;;;;;;;0.10;0.10;;;;;;;;;;5020273;28;20037;-78
2024/01/03 06:20:43;;;;;;;0.20;0.15;;;;;;;;;;5020447;28;20034;-79
2024/01/03 06:23:09;;;;;;;0.10;0.10;;;;;;;;;;5025338;28;20039;-77
2024/01/03 06:25:37;;;;;;;0.10;0.10;;;;;;;;;;5006569;28;20048;-78
2024/01/03 06:28:03;;;;;;;0.20;0.20;;;;;;;;;;5003955;28;20385;-78
2024/01/03 06:30:29;;;;;;;0.17;0.13;;;;;;;;;;5004797;28;20068;-78
2024/01/03 06:32:55;;;;;;;0.15;0.10;;;;;;;;;;5007764;28;20104;-77
2024/01/03 06:35:21;;;;;;;0.85;0.13;;;;;;;;;;5008665;28;20101;-78
2024/01/03 06:37:49;;;;;;;0.40;0.20;;;;;;;;;;5014872;28;20054;-78
2024/01/03 06:40:15;;;;;;;0.10;0.10;;;;;;;;;;5000096;28;20028;-77
2024/01/03 06:42:41;;;;;;;0.20;0.20;;;;;;;;;;4999054;28;20034;-79
2024/01/03 06:45:07;;;;;;;0.30;0.20;;;;;;;;;;5004624;28;20034;-77
2024/01/03 06:47:33;;;;;;;0.52;0.13;;;;;;;;;;5005616;28;20014;-75
2024/01/03 06:50:00;;;;;;;0.57;0.10;;;;;;;;;;5012792;28;20026;-77
2024/01/03 06:52:26;;;;;;;0.32;0.32;;;;;;;;;;5015305;28;20056;-78
2024/01/03 06:54:54;;;;;;;0.20;0.20;;;;;;;;;;5020841;28;20037;-77
2024/01/03 06:57:20;;;;;;;0.10;0.10;;;;;;;;;;5011377;28;20545;-79
2024/01/03 06:59:46;;;;;;;0.20;0.20;;;;;;;;;;5007361;28;20056;-79
2024/01/03 07:02:13;;;;;;;0.10;0.10;;;;;;;;;;5011018;28;20033;-77
2024/01/03 07:04:39;;;;;;;0.13;0.10;;;;;;;;;;5005433;28;20500;-77
2024/01/03 07:07:05;;;;;;;0.20;0.10;;;;;;;;;;5014991;28;20033;-77
2024/01/03 07:09:31;;;;;;;0.43;0.15;;;;;;;;;;5017455;28;20026;-78
2024/01/03 07:11:57;;;;;;;0.10;0.10;;;;;;;;;;5018580;28;20030;-78
2024/01/03 07:14:23;;;;;;;0.10;0.10;;;;;;;;;;5019319;28;20033;-78
2024/01/03 07:16:49;;;;;;;0.38;0.32;;;;;;;;;;5015718;28;20026;-78
2024/01/03 07:19:16;;;;;;;0.52;0.50;;;;;;;;;;5009716;28;20030;-78
2024/01/03 07:21:42;;;;;;;0.73;0.10;;;;;;;;;;5012022;28;20029;-77
2024/01/03 07:24:10;;;;;;;0.10;0.10;;;;;;;;;;5013016;28;20077;-78
2024/01/03 07:26:36;;;;;;;0.20;0.20;;;;;;;;;;5007505;28;20067;-78
2024/01/03 07:29:02;;;;;;;0.93;0.30;;;;;;;;;;5015335;28;20030;-78
2024/01/03 07:31:28;;;;;;;0.73;0.30;;;;;;;;;;5016270;28;20049;-78
2024/01/03 07:33:54;;;;;;;0.90;0.32;;;;;;;;;;5003974;28;20026;-77
2024/01/03 07:36:20;;;;;;;0.30;0.20;;;;;;;;;;5004787;28;20018;-78
2024/01/03 07:38:47;;;;;;;0.20;0.20;;;;;;;;;;5011244;28;20041;-79
2024/01/03 07:41:17;;;;;;;0.80;0.30;;;;;;;;;;5012532;28;20025;-76
2024/01/03 07:43:43;;;;;;;0.30;0.10;;;;;;;;;;5006214;28;20025;-79
2024/01/03 07:46:09;;;;;;;1.25;0.20;;;;;;;;;;5009591;28;20064;-78
2024/01/03 07:48:35;;;;;;;0.70;0.15;;;;;;;;;;5022425;28;20018;-77
2024/01/03 07:51:02;;;;;;;1.58;0.50;;;;;;;;;;5023929;28;20029;-78
2024/01/03 07:53:28;;;;;;;2.28;0.43;;;;;;;;;;5024015;28;20053;-77
2024/01/03 07:55:54;;;;;;;1.88;0.85;;;;;;;;;;5026253;28;20026;-79
2024/01/03 07:58:20;;;;;;;2.88;0.20;;;;;;;;;;5027862;28;20107;-79
2024/01/03 08:00:46;;;;;;;1.83;0.50;;;;;;;;;;5012313;28;20440;-77
2024/01/03 08:03:12;;;;;;;2.00;0.40;;;;;;;;;;5011746;28;20381;-79
2024/01/03 08:05:38;;;;;;;2.45;0.40;;;;;;;;;;5011892;28;20034;-77
2024/01/03 08:08:05;;;;;;;0.93;0.20;;;;;;;;;;5016232;28;20113;-78
2024/01/03 08:10:31;;;;;;;1.90;0.40;;;;;;;;;;5008137;28;20029;-77
2024/01/03 08:12:57;;;;;;;2.47;0.45;;;;;;;;;;5025233;28;20076;-78
2024/01/03 08:15:23;;;;;;;3.90;0.50;;;;;;;;;;5023821;28;20480;-77
2024/01/03 08:17:49;;;;;;;3.15;0.90;;;;;;;;;;5011444;28;20045;-78
2024/01/03 08:20:15;;;;;;;3.08;0.77;;;;;;;;;;5022581;28;20019;-80
2024/01/03 08:22:42;;;;;;;2.47;0.60;;;;;;;;;;5026099;28;20372;-79
2024/01/03 08:25:10;;;;;;;1.95;0.85;;;;;;;;;;5021063;28;20027;-79
2024/01/03 08:27:36;;;;;;;2.67;0.52;;;;;;;;;;5034041;28;20022;-78
2024/01/03 08:30:02;;;;;;;1.50;0.57;;;;;;;;;;5024473;28;20022;-78
2024/01/03 08:32:29;;;;;;;1.33;0.45;;;;;;;;;;5030363;28;20021;-77
2024/01/03 08:34:55;;;;;;;2.28;0.40;;;;;;;;;;5024456;28;20128;-78
2024/01/03 08:37:22;;;;;;;0.60;0.40;;;;;;;;;;5025108;28;20076;-80
2024/01/03 08:39:48;;;;;;;0.40;0.30;;;;;;;;;;5013555;28;20034;-78
2024/01/03 08:42:14;;;;;;;2.58;0.57;;;;;;;;;;5012215;28;20041;-80
2024/01/03 08:44:40;;;;;;;1.63;0.20;;;;;;;;;;5019983;28;20038;-78
2024/01/03 08:47:07;;;;;;;1.70;0.50;;;;;;;;;;5013176;28;20022;-79
2024/01/03 08:49:34;;;;;;;2.25;0.50;;;;;;;;;;5018432;28;20049;-79
2024/01/03 08:52:01;;;;;;;1.85;0.40;;;;;;;;;;5018894;28;20041;-79
2024/01/03 08:54:27;;;;;;;0.85;0.57;;;;;;;;;;5016652;28;20049;-80
2024/01/03 08:56:53;;;;;;;1.92;0.50;;;;;;;;;;5033973;28;20018;-79
2024/01/03 08:59:20;;;;;;;2.42;0.47;;;;;;;;;;5016234;28;20045;-79
2024/01/03 09:01:46;;;;;;;1.75;0.70;;;;;;;;;;5006738;28;20089;-78
2024/01/03 09:04:12;;;;;;;1.30;0.40;;;;;;;;;;5001494;28;20446;-79
2024/01/03 09:06:38;;;;;;;0.30;0.30;;;;;;;;;;5007060;28;20037;-79
2024/01/03 09:09:05;;;;;;;2.40;0.30;;;;;;;;;;5003835;28;20061;-79
2024/01/03 09:11:31;;;;;;;1.90;0.50;;;;;;;;;;5012545;28;20096;-81
2024/01/03 09:13:58;;;;;;;1.85;0.60;;;;;;;;;;5001737;28;20038;-80
2024/01/03 09:16:26;;;;;;;1.88;0.52;;;;;;;;;;5017611;28;20120;-80
2024/01/03 09:18:52;;;;;;;1.05;0.55;;;;;;;;;;5012799;28;20025;-78
2024/01/03 09:21:19;;;;;;;0.98;0.40;;;;;;;;;;5024208;28;20089;-79
2024/01/03 09:23:45;;;;;;;0.88;0.60;;;;;;;;;;5023115;28;20409;-78
2024/01/03 09:26:11;;;;;;;0.90;0.40;;;;;;;;;;5001062;28;20022;-79
2024/01/03 09:28:41;;;;;;;0.35;0.17;;;;;;;;;;5013025;28;20072;-80
2024/01/03 09:31:08;;;;;;;0.60;0.60;;;;;;;;;;5044401;28;20081;-79
2024/01/03 09:33:34;;;;;;;0.77;0.40;;;;;;;;;;5019097;28;20033;-80
2024/01/03 09:36:00;;;;;;;1.45;0.50;;;;;;;;;;5022139;28;20080;-79
2024/01/03 09:38:27;;;;;;;0.65;0.43;;;;;;;;;;5028678;28;20529;-79
2024/01/03 09:40:53;;;;;;;2.50;0.43;;;;;;;;;;5023196;28;20026;-77
2024/01/03 09:43:19;;;;;;;1.98;0.50;;;;;;;;;;5015612;28;20028;-79
2024/01/03 09:45:46;;;;;;;0.45;0.32;;;;;;;;;;5002180;28;20405;-80
2024/01/03 09:48:13;;;;;;;2.42;0.40;;;;;;;;;;5020724;28;20080;-80
2024/01/03 09:50:39;;;;;;;1.00;0.55;;;;;;;;;;5021267;28;20131;-78
2024/01/03 09:53:06;;;;;;;1.48;0.40;;;;;;;;;;5034928;28;20028;-80
2024/01/03 09:55:34;;;;;;;0.82;0.50;;;;;;;;;;5009240;28;20145;-79
2024/01/03 09:58:01;;;;;;;1.35;1.25;;;;;;;;;;5029889;28;20013;-79
2024/01/03 10:00:31;;;;;;;0.80;0.30;;;;;;;;;;5021798;28;20026;-79
2024/01/03 10:03:00;;;;;;;2.15;0.60;;;;;;;;;;5026800;28;20027;-79
2024/01/03 10:05:27;;;;;;;1.80;0.38;;;;;;;;;;5031607;28;20030;-79
2024/01/03 10:07:53;;;;;;;2.17;0.45;;;;;;;;;;5028758;28;20489;-79
2024/01/03 10:10:39;;;;;;;0.43;0.40;;;;;;;;;;5035228;28;20029;-81
2024/01/03 10:13:29;;;;;;;1.23;0.50;;;;;;;;;;5006067;28;20058;-79
2024/01/03 10:15:55;;;;;;;1.08;0.60;;;;;;;;;;5012503;28;20022;-80
2024/01/03 10:18:22;;;;;;;1.00;0.43;;;;;;;;;;5022739;28;20018;-79
2024/01/03 10:20:48;;;;;;;1.13;0.20;;;;;;;;;;5015727;28;20106;-79
2024/01/03 10:23:15;;;;;;;1.83;0.50;;;;;;;;;;5023943;28;20022;-79
2024/01/03 10:25:43;;;;;;;0.93;0.40;;;;;;;;;;5014433;28;20023;-80
2024/01/03 10:28:10;;;;;;;1.27;0.43;;;;;;;;;;5027285;28;20086;-80
2024/01/03 10:30:36;;;;;;;3.35;0.50;;;;;;;;;;5021737;28;20037;-79
2024/01/03 10:33:04;;;;;;;0.40;0.40;;;;;;;;;;5021164;28;20424;-79
2024/01/03 10:35:31;;;;;;;0.38;0.32;;;;;;;;;;5004803;28;20014;-79
2024/01/03 10:37:59;;;;;;;1.27;0.43;;;;;;;;;;5021688;28;20503;-81
2024/01/03 10:40:26;;;;;;;1.20;1.10;;;;;;;;;;5014143;28;20029;-79
2024/01/03 10:42:53;;;;;;;2.08;0.60;;;;;;;;;;5019319;28;20052;-79
2024/01/03 10:45:19;;;;;;;4.07;1.13;;;;;;;;;;5013570;28;20164;-79
2024/01/03 10:47:45;;;;;;;1.23;0.43;;;;;;;;;;4999459;28;20060;-78
2024/01/03 10:50:12;;;;;;;1.75;0.70;;;;;;;;;;5020423;28;20041;-78
2024/01/03 10:52:38;;;;;;;0.70;0.60;;;;;;;;;;5024944;28;20025;-77
2024/01/03 10:55:06;;;;;;;1.95;0.70;;;;;;;;;;5020696;28;20153;-79
2024/01/03 10:57:36;;;;;;;2.10;0.65;;;;;;;;;;5029502;28;20092;-78
2024/01/03 11:00:21;;;;;;;1.85;0.60;;;;;;;;;;5016398;28;20034;-78
2024/01/03 11:02:56;;;;;;;0.75;0.40;;;;;;;;;;5015837;28;20160;-79
2024/01/03 11:05:29;;;;;;;1.98;0.60;;;;;;;;;;5004730;28;20042;-79
2024/01/03 11:07:59;;;;;;;1.48;0.60;;;;;;;;;;5017768;28;20040;-78
2024/01/03 11:10:44;;;;;;;1.92;0.50;;;;;;;;;;5012094;28;20033;-78
2024/01/03 11:13:29;;;;;;;0.47;0.47;;;;;;;;;;5019559;28;20022;-79
2024/01/03 11:15:55;;;;;;;1.67;0.50;;;;;;;;;;5020919;28;20068;-78
2024/01/03 11:18:40;;;;;;;1.20;0.70;;;;;;;;;;5013332;28;20048;-80
2024/01/03 11:21:26;;;;;;;1.67;0.70;;;;;;;;;;5019079;28;20022;-79
2024/01/03 11:23:53;;;;;;;1.65;0.70;;;;;;;;;;5016936;28;20026;-79
2024/01/03 11:26:19;;;;;;;4.28;0.82;;;;;;;;;;5013623;28;20093;-79
2024/01/03 11:28:52;;;;;;;5.63;0.63;;;;;;;;;;5016987;28;20061;-79
2024/01/03 11:31:47;;;;;;;1.75;0.57;;;;;;;;;;5018864;28;20481;-80
2024/01/03 11:34:34;;;;;;;3.17;0.60;;;;;;;;;;4988846;28;20053;-78
2024/01/03 11:37:00;;;;;;;1.00;0.50;;;;;;;;;;5016383;28;20022;-80
2024/01/03 11:39:33;;;;;;;1.13;0.50;;;;;;;;;;5008336;28;20030;-79
2024/01/03 11:41:59;;;;;;;3.30;1.00;;;;;;;;;;5033197;28;20021;-79
2024/01/03 11:44:25;;;;;;;2.13;0.82;;;;;;;;;;5023871;28;20029;-79
2024/01/03 11:47:04;;;;;;;0.68;0.50;;;;;;;;;;5020385;28;20029;-80
2024/01/03 11:49:31;;;;;;;2.08;0.95;;;;;;;;;;5020219;28;20022;-79
2024/01/03 11:51:57;;;;;;;1.45;0.63;;;;;;;;;;5019280;28;20296;-79
2024/01/03 11:54:24;;;;;;;2.45;1.00;;;;;;;;;;5019735;28;20022;-79
2024/01/03 11:56:50;;;;;;;2.67;0.80;;;;;;;;;;5022853;28;20384;-78
2024/01/03 11:59:25;;;;;;;2.97;0.60;;;;;;;;;;5020810;28;20030;-79
2024/01/03 12:01:56;;;;;;;1.83;0.68;;;;;;;;;;5005099;28;20411;-79
2024/01/03 12:04:22;;;;;;;1.58;0.75;;;;;;;;;;5013826;28;20023;-79
2024/01/03 12:06:48;;;;;;;1.75;0.70;;;;;;;;;;5024742;28;20107;-80
2024/01/03 12:09:15;;;;;;;0.98;0.60;;;;;;;;;;5014861;28;20019;-78
2024/01/03 12:11:41;;;;;;;1.70;1.02;;;;;;;;;;5029202;28;20077;-77
2024/01/03 12:14:08;;;;;;;2.03;0.60;;;;;;;;;;5022126;28;20022;-77
2024/01/03 12:16:46;;;;;;;2.67;0.70;;;;;;;;;;5005001;28;20034;-77
2024/01/03 12:19:21;;;;;;;2.03;0.70;;;;;;;;;;5021079;28;20022;-78
2024/01/03 12:21:57;;;;;;;0.52;0.52;;;;;;;;;;5019696;28;20090;-79
2024/01/03 12:24:37;;;;;;;1.08;0.63;;;;;;;;;;5016092;28;20032;-79
2024/01/03 12:27:03;;;;;;;3.72;1.05;;;;;;;;;;5005566;28;20026;-78
2024/01/03 12:29:29;;;;;;;1.17;0.50;;;;;;;;;;5020119;28;20030;-78
2024/01/03 12:31:55;;;;;;;0.20;0.20;;;;;;;;;;5016927;28;20026;-78
2024/01/03 12:34:21;;;;;;;1.42;0.55;;;;;;;;;;5021011;28;20026;-78
2024/01/03 12:36:48;;;;;;;1.52;0.50;;;;;;;;;;5020053;28;20034;-77
2024/01/03 12:39:14;;;;;;;1.38;0.60;;;;;;;;;;5028440;28;20167;-78
2024/01/03 12:41:41;;;;;;;1.42;0.73;;;;;;;;;;5024870;28;20069;-79
2024/01/03 12:44:07;;;;;;;0.80;0.50;;;;;;;;;;5021481;28;20058;-77
2024/01/03 12:46:33;;;;;;;3.30;0.60;;;;;;;;;;5010291;28;20049;-78
2024/01/03 12:48:59;;;;;;;1.40;0.40;;;;;;;;;;5020607;28;20088;-79
2024/01/03 12:51:25;;;;;;;1.85;0.77;;;;;;;;;;5019641;28;20078;-77
2024/01/03 12:53:52;;;;;;;2.65;0.60;;;;;;;;;;5026650;28;20484;-78
2024/01/03 12:56:18;;;;;;;1.80;0.60;;;;;;;;;;5011986;28;20085;-78
2024/01/03 12:58:44;;;;;;;0.50;0.30;;;;;;;;;;5019923;28;20497;-78
2024/01/03 13:01:10;;;;;;;2.08;0.60;;;;;;;;;;5019003;28;20101;-78
2024/01/03 13:03:37;;;;;;;0.70;0.60;;;;;;;;;;5027951;28;20475;-79
2024/01/03 13:06:03;;;;;;;1.45;0.40;;;;;;;;;;5000921;28;20034;-78
2024/01/03 13:08:29;;;;;;;1.77;0.70;;;;;;;;;;5005207;28;20018;-81
2024/01/03 13:10:55;;;;;;;2.35;0.50;;;;;;;;;;5007000;28;20049;-79
2024/01/03 13:13:21;;;;;;;1.38;0.60;;;;;;;;;;5017237;28;20060;-79
2024/01/03 13:15:51;;;;;;;3.38;0.70;;;;;;;;;;5012523;28;20022;-78
2024/01/03 13:18:17;;;;;;;2.05;0.47;;;;;;;;;;5023572;28;20026;-78
2024/01/03 13:20:43;;;;;;;3.55;0.68;;;;;;;;;;5023638;28;20026;-78
2024/01/03 13:23:09;;;;;;;0.95;0.60;;;;;;;;;;5022312;28;20029;-78
2024/01/03 13:25:35;;;;;;;3.33;0.70;;;;;;;;;;5003808;28;20083;-79
2024/01/03 13:28:01;;;;;;;2.17;0.77;;;;;;;;;;4999338;28;20022;-78
2024/01/03 13:30:28;;;;;;;2.55;0.70;;;;;;;;;;4999902;28;20559;-79
2024/01/03 13:32:55;;;;;;;1.45;0.30;;;;;;;;;;5007606;28;20025;-79
2024/01/03 13:35:21;;;;;;;1.85;0.50;;;;;;;;;;5007541;28;20445;-79
2024/01/03 13:37:48;;;;;;;1.88;0.50;;;;;;;;;;5007664;28;20034;-79
2024/01/03 13:40:14;;;;;;;0.70;0.30;;;;;;;;;;5011055;28;20030;-79
2024/01/03 13:42:42;;;;;;;1.10;0.40;;;;;;;;;;5018523;28;20037;-80
2024/01/03 13:45:09;;;;;;;0.80;0.30;;;;;;;;;;5019738;28;20076;-80
2024/01/03 13:47:35;;;;;;;1.45;0.55;;;;;;;;;;5017691;28;20053;-79
2024/01/03 13:50:02;;;;;;;0.38;0.38;;;;;;;;;;5020099;28;20120;-79
2024/01/03 13:52:28;;;;;;;1.45;0.38;;;;;;;;;;5017837;28;20060;-79
2024/01/03 13:54:54;;;;;;;1.90;0.40;;;;;;;;;;5002992;28;20026;-78
2024/01/03 13:57:20;;;;;;;0.95;0.47;;;;;;;;;;5019365;28;20396;-79
2024/01/03 13:59:47;;;;;;;0.47;0.35;;;;;;;;;;5018792;28;20078;-79
2024/01/03 14:02:13;;;;;;;0.52;0.40;;;;;;;;;;5017272;28;20489;-78
2024/01/03 14:04:39;;;;;;;2.10;0.30;;;;;;;;;;5017834;28;20022;-78
2024/01/03 14:07:05;;;;;;;0.85;0.52;;;;;;;;;;4996776;28;20110;-79
2024/01/03 14:09:31;;;;;;;0.45;0.28;;;;;;;;;;5014604;28;20022;-80
2024/01/03 14:11:57;;;;;;;2.70;0.80;;;;;;;;;;5008635;28;20026;-79
2024/01/03 14:14:25;;;;;;;0.98;0.45;;;;;;;;;;5011082;28;20022;-79
2024/01/03 14:16:51;;;;;;;1.40;0.55;;;;;;;;;;5024864;28;20100;-79
2024/01/03 14:19:20;;;;;;;0.68;0.40;;;;;;;;;;5022199;28;20026;-78
2024/01/03 14:21:49;;;;;;;1.70;0.35;;;;;;;;;;5018472;28;20026;-79
2024/01/03 14:24:16;;;;;;;1.15;0.32;;;;;;;;;;5004035;28;20382;-78
2024/01/03 14:26:43;;;;;;;0.73;0.40;;;;;;;;;;5024220;28;20037;-79
2024/01/03 14:29:09;;;;;;;1.27;0.30;;;;;;;;;;5020892;28;20078;-79
2024/01/03 14:31:35;;;;;;;1.33;0.40;;;;;;;;;;5004863;28;20030;-79
2024/01/03 14:34:01;;;;;;;0.57;0.30;;;;;;;;;;5020522;28;20101;-79
2024/01/03 14:36:27;;;;;;;0.77;0.30;;;;;;;;;;5011097;28;20065;-79
2024/01/03 14:38:55;;;;;;;1.80;0.50;;;;;;;;;;5008881;28;20034;-78
2024/01/03 14:41:23;;;;;;;1.13;0.73;;;;;;;;;;5012797;28;20351;-79
2024/01/03 14:43:58;;;;;;;0.32;0.30;;;;;;;;;;5000126;28;20045;-79